sensor_id;sensor_type;location;lat;lon;timestamp;pressure;altitude;pressure_sealevel;temperature;humidity
35577;BME280;21680;52.400;16.920;2023-05-23T00:00:53;100559.98;;;16.05;45.92
35577;BME280;21680;52.400;16.920;2023-05-23T00:03:18;100558.98;;;16.04;45.87
35577;BME280;21680;52.400;16.920;2023-05-23T00:05:47;100554.60;;;16.02;45.97
35577;BME280;21680;52.400;16.920;2023-05-23T00:08:13;100556.33;;;16.00;45.98
35577;BME280;21680;52.400;16.920;2023-05-23T00:10:38;100556.04;;;15.97;46.09
35577;BME280;21680;52.400;16.920;2023-05-23T00:13:03;100554.38;;;15.94;46.18
35577;BME280;21680;52.400;16.920;2023-05-23T00:15:29;100554.56;;;15.95;46.32
35577;BME280;21680;52.400;16.920;2023-05-23T00:17:55;100551.80;;;15.93;46.36
35577;BME280;21680;52.400;16.920;2023-05-23T00:20:20;100545.25;;;15.90;46.30
35577;BME280;21680;52.400;16.920;2023-05-23T00:22:45;100543.34;;;15.87;46.34
35577;BME280;21680;52.400;16.920;2023-05-23T00:25:12;100545.58;;;15.83;46.43
35577;BME280;21680;52.400;16.920;2023-05-23T00:27:37;100543.95;;;15.81;46.58
35577;BME280;21680;52.400;16.920;2023-05-23T00:30:03;100538.53;;;15.78;46.65
35577;BME280;21680;52.400;16.920;2023-05-23T00:32:28;100538.18;;;15.75;46.75
35577;BME280;21680;52.400;16.920;2023-05-23T00:34:54;100533.65;;;15.73;46.83
35577;BME280;21680;52.400;16.920;2023-05-23T00:37:20;100537.96;;;15.70;46.91
35577;BME280;21680;52.400;16.920;2023-05-23T00:39:47;100539.45;;;15.68;46.88
35577;BME280;21680;52.400;16.920;2023-05-23T00:42:12;100536.98;;;15.64;47.04
35577;BME280;21680;52.400;16.920;2023-05-23T00:44:37;100541.10;;;15.61;47.16
35577;BME280;21680;52.400;16.920;2023-05-23T00:47:04;100542.63;;;15.58;47.26
35577;BME280;21680;52.400;16.920;2023-05-23T00:49:30;100547.46;;;15.55;47.25
35577;BME280;21680;52.400;16.920;2023-05-23T00:51:56;100542.48;;;15.51;47.33
35577;BME280;21680;52.400;16.920;2023-05-23T00:54:27;100544.52;;;15.48;47.56
35577;BME280;21680;52.400;16.920;2023-05-23T00:56:53;100540.88;;;15.43;47.64
35577;BME280;21680;52.400;16.920;2023-05-23T00:59:20;100543.88;;;15.38;47.59
35577;BME280;21680;52.400;16.920;2023-05-23T01:01:48;100542.53;;;15.34;47.80
35577;BME280;21680;52.400;16.920;2023-05-23T01:04:14;100541.54;;;15.30;47.89
35577;BME280;21680;52.400;16.920;2023-05-23T01:06:40;100538.66;;;15.27;48.00
35577;BME280;21680;52.400;16.920;2023-05-23T01:09:12;100536.20;;;15.23;48.05
35577;BME280;21680;52.400;16.920;2023-05-23T01:12:36;100540.13;;;15.21;48.19
35577;BME280;21680;52.400;16.920;2023-05-23T01:14:41;100540.30;;;15.18;48.30
35577;BME280;21680;52.400;16.920;2023-05-23T01:17:14;100539.63;;;15.15;48.35
35577;BME280;21680;52.400;16.920;2023-05-23T01:19:54;100534.58;;;15.12;48.51
35577;BME280;21680;52.400;16.920;2023-05-23T01:28:10;100533.15;;;15.04;48.75
35577;BME280;21680;52.400;16.920;2023-05-23T01:30:39;100529.77;;;15.00;48.81
35577;BME280;21680;52.400;16.920;2023-05-23T01:33:06;100524.33;;;14.98;48.87
35577;BME280;21680;52.400;16.920;2023-05-23T01:35:32;100524.10;;;14.96;48.93
35577;BME280;21680;52.400;16.920;2023-05-23T01:37:58;100522.89;;;14.92;49.05
35577;BME280;21680;52.400;16.920;2023-05-23T01:40:24;100522.34;;;14.89;49.17
35577;BME280;21680;52.400;16.920;2023-05-23T01:42:51;100520.63;;;14.88;49.18
35577;BME280;21680;52.400;16.920;2023-05-23T01:45:17;100516.95;;;14.87;49.33
35577;BME280;21680;52.400;16.920;2023-05-23T01:47:43;100519.16;;;14.86;49.35
35577;BME280;21680;52.400;16.920;2023-05-23T01:50:10;100518.40;;;14.84;49.48
35577;BME280;21680;52.400;16.920;2023-05-23T01:52:36;100515.64;;;14.82;49.55
35577;BME280;21680;52.400;16.920;2023-05-23T01:55:04;100511.46;;;14.80;49.58
35577;BME280;21680;52.400;16.920;2023-05-23T01:57:35;100507.45;;;14.78;49.70
35577;BME280;21680;52.400;16.920;2023-05-23T02:00:05;100507.80;;;14.75;49.86
35577;BME280;21680;52.400;16.920;2023-05-23T02:02:32;100499.77;;;14.74;49.83
35577;BME280;21680;52.400;16.920;2023-05-23T02:04:58;100500.97;;;14.72;49.81
35577;BME280;21680;52.400;16.920;2023-05-23T02:07:23;100496.42;;;14.70;49.94
35577;BME280;21680;52.400;16.920;2023-05-23T02:09:49;100497.66;;;14.68;50.03
35577;BME280;21680;52.400;16.920;2023-05-23T02:12:14;100499.11;;;14.67;50.20
35577;BME280;21680;52.400;16.920;2023-05-23T02:14:39;100495.66;;;14.65;50.24
35577;BME280;21680;52.400;16.920;2023-05-23T02:17:06;100494.46;;;14.64;50.31
35577;BME280;21680;52.400;16.920;2023-05-23T02:19:34;100494.03;;;14.62;50.45
35577;BME280;21680;52.400;16.920;2023-05-23T02:22:00;100495.21;;;14.60;50.42
35577;BME280;21680;52.400;16.920;2023-05-23T02:24:25;100494.07;;;14.59;50.59
35577;BME280;21680;52.400;16.920;2023-05-23T02:26:51;100489.08;;;14.58;50.63
35577;BME280;21680;52.400;16.920;2023-05-23T02:29:17;100487.02;;;14.56;50.73
35577;BME280;21680;52.400;16.920;2023-05-23T02:31:42;100483.87;;;14.55;50.73
35577;BME280;21680;52.400;16.920;2023-05-23T02:34:08;100483.33;;;14.52;50.89
35577;BME280;21680;52.400;16.920;2023-05-23T02:36:33;100479.14;;;14.50;50.96
35577;BME280;21680;52.400;16.920;2023-05-23T02:39:02;100477.11;;;14.48;51.01
35577;BME280;21680;52.400;16.920;2023-05-23T02:41:28;100478.55;;;14.45;51.09
35577;BME280;21680;52.400;16.920;2023-05-23T02:43:53;100474.38;;;14.43;51.12
35577;BME280;21680;52.400;16.920;2023-05-23T02:46:18;100473.55;;;14.42;51.29
35577;BME280;21680;52.400;16.920;2023-05-23T02:48:44;100475.80;;;14.40;51.36
35577;BME280;21680;52.400;16.920;2023-05-23T02:51:09;100474.86;;;14.38;51.45
35577;BME280;21680;52.400;16.920;2023-05-23T02:53:34;100470.16;;;14.35;51.43
35577;BME280;21680;52.400;16.920;2023-05-23T02:56:00;100468.31;;;14.33;51.56
35577;BME280;21680;52.400;16.920;2023-05-23T02:58:25;100467.55;;;14.31;51.69
35577;BME280;21680;52.400;16.920;2023-05-23T03:00:51;100470.31;;;14.30;51.74
35577;BME280;21680;52.400;16.920;2023-05-23T03:03:16;100472.48;;;14.26;51.89
35577;BME280;21680;52.400;16.920;2023-05-23T03:05:41;100473.51;;;14.25;51.89
35577;BME280;21680;52.400;16.920;2023-05-23T03:08:06;100467.88;;;14.22;51.97
35577;BME280;21680;52.400;16.920;2023-05-23T03:10:32;100468.70;;;14.21;52.15
35577;BME280;21680;52.400;16.920;2023-05-23T03:12:58;100467.16;;;14.20;52.16
35577;BME280;21680;52.400;16.920;2023-05-23T03:15:23;100460.49;;;14.17;52.29
35577;BME280;21680;52.400;16.920;2023-05-23T03:17:48;100462.00;;;14.16;52.29
35577;BME280;21680;52.400;16.920;2023-05-23T03:20:14;100458.55;;;14.14;52.30
35577;BME280;21680;52.400;16.920;2023-05-23T03:22:39;100459.04;;;14.12;52.54
35577;BME280;21680;52.400;16.920;2023-05-23T03:25:08;100457.86;;;14.10;52.64
35577;BME280;21680;52.400;16.920;2023-05-23T03:27:33;100461.27;;;14.10;52.74
35577;BME280;21680;52.400;16.920;2023-05-23T03:29:58;100460.53;;;14.11;52.79
35577;BME280;21680;52.400;16.920;2023-05-23T03:32:23;100462.04;;;14.09;52.71
35577;BME280;21680;52.400;16.920;2023-05-23T03:34:49;100455.48;;;14.08;52.82
35577;BME280;21680;52.400;16.920;2023-05-23T03:37:14;100457.55;;;14.07;52.99
35577;BME280;21680;52.400;16.920;2023-05-23T03:39:39;100459.73;;;14.06;53.07
35577;BME280;21680;52.400;16.920;2023-05-23T03:42:05;100455.41;;;14.06;53.16
35577;BME280;21680;52.400;16.920;2023-05-23T03:44:30;100455.33;;;14.05;53.15
35577;BME280;21680;52.400;16.920;2023-05-23T03:46:55;100455.33;;;14.05;53.31
35577;BME280;21680;52.400;16.920;2023-05-23T03:49:21;100456.02;;;14.05;53.37
35577;BME280;21680;52.400;16.920;2023-05-23T03:51:46;100454.17;;;14.06;53.49
35577;BME280;21680;52.400;16.920;2023-05-23T03:54:11;100454.86;;;14.07;53.51
35577;BME280;21680;52.400;16.920;2023-05-23T03:56:36;100454.69;;;14.06;53.54
35577;BME280;21680;52.400;16.920;2023-05-23T03:59:02;100456.59;;;14.08;53.70
35577;BME280;21680;52.400;16.920;2023-05-23T04:01:27;100458.29;;;14.09;53.87
35577;BME280;21680;52.400;16.920;2023-05-23T04:03:52;100457.66;;;14.11;53.90
35577;BME280;21680;52.400;16.920;2023-05-23T04:06:17;100457.52;;;14.13;53.95
35577;BME280;21680;52.400;16.920;2023-05-23T04:08:44;100453.50;;;14.14;54.08
35577;BME280;21680;52.400;16.920;2023-05-23T04:11:09;100451.55;;;14.16;54.09
35577;BME280;21680;52.400;16.920;2023-05-23T04:13:35;100450.65;;;14.19;54.06
35577;BME280;21680;52.400;16.920;2023-05-23T04:16:01;100448.45;;;14.23;54.21
35577;BME280;21680;52.400;16.920;2023-05-23T04:18:30;100450.88;;;14.27;54.27
35577;BME280;21680;52.400;16.920;2023-05-23T04:20:57;100451.92;;;14.31;54.27
35577;BME280;21680;52.400;16.920;2023-05-23T04:23:23;100448.79;;;14.35;54.44
35577;BME280;21680;52.400;16.920;2023-05-23T04:25:48;100447.97;;;14.39;54.51
35577;BME280;21680;52.400;16.920;2023-05-23T04:28:13;100447.59;;;14.43;54.55
35577;BME280;21680;52.400;16.920;2023-05-23T04:30:41;100445.15;;;14.47;54.64
35577;BME280;21680;52.400;16.920;2023-05-23T04:33:07;100442.16;;;14.52;54.67
35577;BME280;21680;52.400;16.920;2023-05-23T04:35:32;100440.66;;;14.56;54.65
35577;BME280;21680;52.400;16.920;2023-05-23T04:37:58;100436.95;;;14.60;54.78
35577;BME280;21680;52.400;16.920;2023-05-23T04:40:23;100435.94;;;14.65;54.71
35577;BME280;21680;52.400;16.920;2023-05-23T04:42:49;100433.66;;;14.70;54.77
35577;BME280;21680;52.400;16.920;2023-05-23T04:45:16;100432.42;;;14.75;54.77
35577;BME280;21680;52.400;16.920;2023-05-23T04:47:41;100428.74;;;14.79;54.77
35577;BME280;21680;52.400;16.920;2023-05-23T04:50:10;100427.02;;;14.83;54.70
35577;BME280;21680;52.400;16.920;2023-05-23T04:52:35;100431.95;;;14.88;54.86
35577;BME280;21680;52.400;16.920;2023-05-23T04:55:00;100431.99;;;14.93;54.96
35577;BME280;21680;52.400;16.920;2023-05-23T04:57:26;100425.52;;;14.98;54.93
35577;BME280;21680;52.400;16.920;2023-05-23T04:59:51;100424.78;;;15.04;54.92
35577;BME280;21680;52.400;16.920;2023-05-23T05:02:16;100427.42;;;15.10;54.94
35577;BME280;21680;52.400;16.920;2023-05-23T05:04:42;100426.17;;;15.16;54.95
35577;BME280;21680;52.400;16.920;2023-05-23T05:07:07;100419.92;;;15.20;54.87
35577;BME280;21680;52.400;16.920;2023-05-23T05:09:32;100417.84;;;15.25;54.87
35577;BME280;21680;52.400;16.920;2023-05-23T05:11:57;100416.91;;;15.31;54.81
35577;BME280;21680;52.400;16.920;2023-05-23T05:14:24;100417.11;;;15.38;54.89
35577;BME280;21680;52.400;16.920;2023-05-23T05:16:51;100418.85;;;15.45;54.80
35577;BME280;21680;52.400;16.920;2023-05-23T05:19:16;100412.58;;;15.52;54.78
35577;BME280;21680;52.400;16.920;2023-05-23T05:21:41;100409.39;;;15.59;54.82
35577;BME280;21680;52.400;16.920;2023-05-23T05:24:07;100410.80;;;15.68;54.80
35577;BME280;21680;52.400;16.920;2023-05-23T05:26:35;100406.52;;;15.75;54.75
35577;BME280;21680;52.400;16.920;2023-05-23T05:29:01;100402.77;;;15.82;54.72
35577;BME280;21680;52.400;16.920;2023-05-23T05:31:26;100401.07;;;15.91;54.63
35577;BME280;21680;52.400;16.920;2023-05-23T05:33:53;100398.36;;;15.99;54.64
35577;BME280;21680;52.400;16.920;2023-05-23T05:36:18;100398.04;;;16.09;54.63
35577;BME280;21680;52.400;16.920;2023-05-23T05:38:44;100403.36;;;16.20;54.64
35577;BME280;21680;52.400;16.920;2023-05-23T05:41:10;100401.58;;;16.33;54.60
35577;BME280;21680;52.400;16.920;2023-05-23T05:43:35;100400.09;;;16.46;54.48
35577;BME280;21680;52.400;16.920;2023-05-23T05:46:00;100399.58;;;16.58;54.56
35577;BME280;21680;52.400;16.920;2023-05-23T05:48:25;100398.33;;;16.71;54.49
35577;BME280;21680;52.400;16.920;2023-05-23T05:50:51;100396.38;;;16.85;54.53
35577;BME280;21680;52.400;16.920;2023-05-23T05:53:16;100394.41;;;16.97;54.45
35577;BME280;21680;52.400;16.920;2023-05-23T05:55:41;100397.20;;;17.12;54.23
35577;BME280;21680;52.400;16.920;2023-05-23T05:58:07;100389.98;;;17.30;54.31
35577;BME280;21680;52.400;16.920;2023-05-23T06:00:32;100385.77;;;17.42;54.12
35577;BME280;21680;52.400;16.920;2023-05-23T06:02:59;100384.14;;;17.49;53.91
35577;BME280;21680;52.400;16.920;2023-05-23T06:05:25;100384.06;;;17.57;54.00
35577;BME280;21680;52.400;16.920;2023-05-23T06:07:51;100381.23;;;17.68;53.99
35577;BME280;21680;52.400;16.920;2023-05-23T06:10:17;100381.55;;;17.78;54.10
35577;BME280;21680;52.400;16.920;2023-05-23T06:12:43;100382.54;;;17.84;53.84
35577;BME280;21680;52.400;16.920;2023-05-23T06:15:10;100380.38;;;17.89;53.87
35577;BME280;21680;52.400;16.920;2023-05-23T06:17:38;100376.39;;;17.91;53.74
35577;BME280;21680;52.400;16.920;2023-05-23T06:20:04;100366.67;;;17.97;53.64
35577;BME280;21680;52.400;16.920;2023-05-23T06:22:30;100365.88;;;17.98;53.58
35577;BME280;21680;52.400;16.920;2023-05-23T06:24:55;100361.04;;;18.07;53.49
35577;BME280;21680;52.400;16.920;2023-05-23T06:27:20;100357.71;;;18.12;53.45
35577;BME280;21680;52.400;16.920;2023-05-23T06:29:45;100356.75;;;18.20;53.42
35577;BME280;21680;52.400;16.920;2023-05-23T06:32:11;100357.60;;;18.29;53.38
35577;BME280;21680;52.400;16.920;2023-05-23T06:34:36;100358.12;;;18.36;53.42
35577;BME280;21680;52.400;16.920;2023-05-23T06:37:01;100357.58;;;18.40;53.03
35577;BME280;21680;52.400;16.920;2023-05-23T06:39:26;100358.37;;;18.49;53.24
35577;BME280;21680;52.400;16.920;2023-05-23T06:41:52;100356.27;;;18.59;53.06
35577;BME280;21680;52.400;16.920;2023-05-23T06:44:18;100351.10;;;18.69;53.00
35577;BME280;21680;52.400;16.920;2023-05-23T06:46:46;100349.33;;;18.82;52.95
35577;BME280;21680;52.400;16.920;2023-05-23T06:49:12;100349.63;;;18.94;52.84
35577;BME280;21680;52.400;16.920;2023-05-23T06:51:37;100350.74;;;19.02;52.80
35577;BME280;21680;52.400;16.920;2023-05-23T06:54:03;100353.10;;;19.15;52.80
35577;BME280;21680;52.400;16.920;2023-05-23T06:56:29;100353.14;;;19.25;52.60
35577;BME280;21680;52.400;16.920;2023-05-23T06:58:54;100351.85;;;19.34;52.39
35577;BME280;21680;52.400;16.920;2023-05-23T07:01:19;100353.85;;;19.40;52.36
35577;BME280;21680;52.400;16.920;2023-05-23T07:03:45;100357.83;;;19.47;52.28
35577;BME280;21680;52.400;16.920;2023-05-23T07:06:11;100359.87;;;19.55;52.22
35577;BME280;21680;52.400;16.920;2023-05-23T07:08:37;100361.23;;;19.71;52.10
35577;BME280;21680;52.400;16.920;2023-05-23T07:11:03;100359.23;;;19.83;52.04
35577;BME280;21680;52.400;16.920;2023-05-23T07:13:29;100354.25;;;19.97;51.89
35577;BME280;21680;52.400;16.920;2023-05-23T07:15:55;100353.41;;;20.11;51.70
35577;BME280;21680;52.400;16.920;2023-05-23T07:18:20;100349.05;;;20.23;51.59
35577;BME280;21680;52.400;16.920;2023-05-23T07:20:45;100348.77;;;20.34;51.47
35577;BME280;21680;52.400;16.920;2023-05-23T07:23:11;100345.94;;;20.42;51.19
35577;BME280;21680;52.400;16.920;2023-05-23T07:25:36;100346.08;;;20.49;51.03
35577;BME280;21680;52.400;16.920;2023-05-23T07:28:01;100341.77;;;20.52;50.82
35577;BME280;21680;52.400;16.920;2023-05-23T07:30:27;100338.89;;;20.60;50.59
35577;BME280;21680;52.400;16.920;2023-05-23T07:32:52;100337.67;;;20.63;50.36
35577;BME280;21680;52.400;16.920;2023-05-23T07:35:17;100340.04;;;20.73;50.27
35577;BME280;21680;52.400;16.920;2023-05-23T07:37:48;100341.05;;;20.82;50.11
35577;BME280;21680;52.400;16.920;2023-05-23T07:40:13;100341.57;;;20.82;49.69
35577;BME280;21680;52.400;16.920;2023-05-23T07:42:39;100344.22;;;20.87;49.74
35577;BME280;21680;52.400;16.920;2023-05-23T07:45:05;100340.11;;;20.96;49.58
35577;BME280;21680;52.400;16.920;2023-05-23T07:47:30;100337.36;;;20.96;49.30
35577;BME280;21680;52.400;16.920;2023-05-23T07:49:56;100340.06;;;20.98;49.26
35577;BME280;21680;52.400;16.920;2023-05-23T07:52:21;100337.70;;;21.10;49.19
35577;BME280;21680;52.400;16.920;2023-05-23T07:54:47;100338.08;;;21.20;49.03
35577;BME280;21680;52.400;16.920;2023-05-23T07:57:13;100336.35;;;21.29;48.96
35577;BME280;21680;52.400;16.920;2023-05-23T07:59:40;100336.48;;;21.35;48.82
35577;BME280;21680;52.400;16.920;2023-05-23T08:02:06;100336.04;;;21.44;48.67
35577;BME280;21680;52.400;16.920;2023-05-23T08:04:31;100335.09;;;21.60;48.47
35577;BME280;21680;52.400;16.920;2023-05-23T08:06:58;100334.48;;;21.68;48.29
35577;BME280;21680;52.400;16.920;2023-05-23T08:09:24;100332.29;;;21.78;48.11
35577;BME280;21680;52.400;16.920;2023-05-23T08:11:49;100333.48;;;21.84;47.70
35577;BME280;21680;52.400;16.920;2023-05-23T08:14:15;100336.20;;;21.92;47.72
35577;BME280;21680;52.400;16.920;2023-05-23T08:16:40;100333.98;;;22.04;47.52
35577;BME280;21680;52.400;16.920;2023-05-23T08:19:06;100334.96;;;22.14;47.36
35577;BME280;21680;52.400;16.920;2023-05-23T08:21:31;100334.54;;;22.22;47.22
35577;BME280;21680;52.400;16.920;2023-05-23T08:23:57;100330.69;;;22.30;47.21
35577;BME280;21680;52.400;16.920;2023-05-23T08:26:23;100331.83;;;22.33;46.90
35577;BME280;21680;52.400;16.920;2023-05-23T08:28:48;100332.31;;;22.34;46.67
35577;BME280;21680;52.400;16.920;2023-05-23T08:31:14;100329.02;;;22.38;46.51
35577;BME280;21680;52.400;16.920;2023-05-23T08:33:39;100324.87;;;22.42;46.24
35577;BME280;21680;52.400;16.920;2023-05-23T08:36:05;100320.80;;;22.49;46.10
35577;BME280;21680;52.400;16.920;2023-05-23T08:38:30;100315.92;;;22.60;45.82
35577;BME280;21680;52.400;16.920;2023-05-23T08:40:59;100319.52;;;22.66;45.81
35577;BME280;21680;52.400;16.920;2023-05-23T08:43:25;100312.36;;;22.66;45.36
35577;BME280;21680;52.400;16.920;2023-05-23T08:45:50;100310.09;;;22.71;45.23
35577;BME280;21680;52.400;16.920;2023-05-23T08:48:18;100310.14;;;22.76;45.00
35577;BME280;21680;52.400;16.920;2023-05-23T08:50:46;100310.96;;;22.82;44.86
35577;BME280;21680;52.400;16.920;2023-05-23T08:53:14;100310.76;;;22.93;44.67
35577;BME280;21680;52.400;16.920;2023-05-23T08:55:45;100315.67;;;23.03;44.61
35577;BME280;21680;52.400;16.920;2023-05-23T08:58:10;100317.10;;;23.09;44.26
35577;BME280;21680;52.400;16.920;2023-05-23T09:00:37;100315.38;;;23.16;44.03
35577;BME280;21680;52.400;16.920;2023-05-23T09:03:03;100316.48;;;23.18;43.73
35577;BME280;21680;52.400;16.920;2023-05-23T09:05:28;100312.64;;;23.17;43.47
35577;BME280;21680;52.400;16.920;2023-05-23T09:07:53;100311.83;;;23.17;43.45
35577;BME280;21680;52.400;16.920;2023-05-23T09:10:19;100309.55;;;23.25;43.22
35577;BME280;21680;52.400;16.920;2023-05-23T09:12:45;100305.23;;;23.28;42.92
35577;BME280;21680;52.400;16.920;2023-05-23T09:15:11;100307.95;;;23.39;42.82
35577;BME280;21680;52.400;16.920;2023-05-23T09:17:36;100310.09;;;23.50;42.76
35577;BME280;21680;52.400;16.920;2023-05-23T09:20:13;100310.38;;;23.61;42.55
35577;BME280;21680;52.400;16.920;2023-05-23T09:22:39;100306.31;;;23.81;42.38
35577;BME280;21680;52.400;16.920;2023-05-23T09:25:05;100304.18;;;23.94;42.34
35577;BME280;21680;52.400;16.920;2023-05-23T09:27:30;100308.90;;;24.05;42.12
35577;BME280;21680;52.400;16.920;2023-05-23T09:29:56;100308.33;;;24.17;41.84
35577;BME280;21680;52.400;16.920;2023-05-23T09:32:21;100299.90;;;24.28;41.73
35577;BME280;21680;52.400;16.920;2023-05-23T09:35:01;100300.37;;;24.31;41.28
35577;BME280;21680;52.400;16.920;2023-05-23T09:37:33;100295.38;;;24.28;40.88
35577;BME280;21680;52.400;16.920;2023-05-23T09:39:59;100296.94;;;24.25;40.76
35577;BME280;21680;52.400;16.920;2023-05-23T09:42:31;100296.78;;;24.28;40.94
35577;BME280;21680;52.400;16.920;2023-05-23T09:44:57;100292.93;;;24.26;40.85
35577;BME280;21680;52.400;16.920;2023-05-23T09:47:23;100291.00;;;24.22;40.70
35577;BME280;21680;52.400;16.920;2023-05-23T09:49:48;100286.39;;;24.16;40.41
35577;BME280;21680;52.400;16.920;2023-05-23T09:52:13;100288.23;;;24.11;40.40
35577;BME280;21680;52.400;16.920;2023-05-23T09:54:39;100288.54;;;24.16;40.40
35577;BME280;21680;52.400;16.920;2023-05-23T09:57:09;100285.66;;;24.21;40.11
35577;BME280;21680;52.400;16.920;2023-05-23T09:59:38;100281.98;;;24.25;40.20
35577;BME280;21680;52.400;16.920;2023-05-23T10:02:06;100283.20;;;24.25;40.07
35577;BME280;21680;52.400;16.920;2023-05-23T10:04:33;100280.97;;;24.25;39.77
35577;BME280;21680;52.400;16.920;2023-05-23T10:07:06;100277.95;;;24.29;39.73
35577;BME280;21680;52.400;16.920;2023-05-23T10:09:37;100274.74;;;24.38;39.49
35577;BME280;21680;52.400;16.920;2023-05-23T10:12:39;100274.86;;;24.49;39.53
35577;BME280;21680;52.400;16.920;2023-05-23T10:15:07;100275.48;;;24.60;39.22
35577;BME280;21680;52.400;16.920;2023-05-23T10:17:55;100273.86;;;24.73;39.10
35577;BME280;21680;52.400;16.920;2023-05-23T10:20:24;100271.41;;;24.90;38.79
35577;BME280;21680;52.400;16.920;2023-05-23T10:22:50;100271.18;;;24.98;38.75
35577;BME280;21680;52.400;16.920;2023-05-23T10:25:17;100271.37;;;25.08;38.68
35577;BME280;21680;52.400;16.920;2023-05-23T10:27:43;100269.27;;;25.22;38.51
35577;BME280;21680;52.400;16.920;2023-05-23T10:30:09;100264.13;;;25.28;38.29
35577;BME280;21680;52.400;16.920;2023-05-23T10:32:39;100261.45;;;25.34;38.28
35577;BME280;21680;52.400;16.920;2023-05-23T10:35:16;100262.69;;;25.36;38.03
35577;BME280;21680;52.400;16.920;2023-05-23T10:42:55;100252.44;;;25.30;37.53
35577;BME280;21680;52.400;16.920;2023-05-23T10:45:23;100250.71;;;25.22;37.31
35577;BME280;21680;52.400;16.920;2023-05-23T10:47:50;100251.27;;;25.26;37.53
35577;BME280;21680;52.400;16.920;2023-05-23T10:50:33;100257.06;;;25.42;37.49
35577;BME280;21680;52.400;16.920;2023-05-23T10:53:00;100255.55;;;25.56;37.24
35577;BME280;21680;52.400;16.920;2023-05-23T10:55:31;100251.45;;;25.53;37.07
35577;BME280;21680;52.400;16.920;2023-05-23T10:58:19;100256.63;;;25.43;36.94
35577;BME280;21680;52.400;16.920;2023-05-23T11:00:53;100253.84;;;25.39;36.86
35577;BME280;21680;52.400;16.920;2023-05-23T11:03:32;100251.44;;;25.45;36.70
35577;BME280;21680;52.400;16.920;2023-05-23T11:05:59;100248.80;;;25.56;36.62
35577;BME280;21680;52.400;16.920;2023-05-23T11:08:25;100249.63;;;25.63;36.60
35577;BME280;21680;52.400;16.920;2023-05-23T11:10:59;100252.44;;;25.64;36.48
35577;BME280;21680;52.400;16.920;2023-05-23T11:13:57;100253.36;;;25.57;36.24
35577;BME280;21680;52.400;16.920;2023-05-23T11:16:31;100252.06;;;25.51;36.20
35577;BME280;21680;52.400;16.920;2023-05-23T11:21:52;100250.55;;;25.40;35.75
35577;BME280;21680;52.400;16.920;2023-05-23T11:24:18;100249.96;;;25.21;35.63
35577;BME280;21680;52.400;16.920;2023-05-23T11:26:54;100246.61;;;25.03;35.44
35577;BME280;21680;52.400;16.920;2023-05-23T11:29:25;100250.94;;;24.85;35.47
35577;BME280;21680;52.400;16.920;2023-05-23T11:31:51;100250.77;;;24.65;35.26
35577;BME280;21680;52.400;16.920;2023-05-23T11:34:17;100250.61;;;24.48;35.10
35577;BME280;21680;52.400;16.920;2023-05-23T11:36:43;100259.59;;;24.31;35.26
35577;BME280;21680;52.400;16.920;2023-05-23T11:39:09;100276.70;;;23.92;35.32
35577;BME280;21680;52.400;16.920;2023-05-23T11:41:34;100285.47;;;23.18;36.34
35577;BME280;21680;52.400;16.920;2023-05-23T11:44:00;100288.66;;;22.37;37.75
35577;BME280;21680;52.400;16.920;2023-05-23T11:46:26;100293.19;;;21.81;38.82
35577;BME280;21680;52.400;16.920;2023-05-23T11:48:51;100295.59;;;21.41;40.67
35577;BME280;21680;52.400;16.920;2023-05-23T11:51:17;100299.14;;;20.79;41.27
35577;BME280;21680;52.400;16.920;2023-05-23T11:53:44;100304.88;;;20.26;42.21
35577;BME280;21680;52.400;16.920;2023-05-23T11:56:10;100318.02;;;19.65;43.39
35577;BME280;21680;52.400;16.920;2023-05-23T11:58:37;100317.21;;;19.28;44.35
35577;BME280;21680;52.400;16.920;2023-05-23T12:01:04;100321.10;;;18.90;45.62
35577;BME280;21680;52.400;16.920;2023-05-23T12:03:34;100318.45;;;18.61;46.39
35577;BME280;21680;52.400;16.920;2023-05-23T12:06:08;100324.20;;;18.31;47.70
35577;BME280;21680;52.400;16.920;2023-05-23T12:08:34;100322.71;;;18.07;48.40
35577;BME280;21680;52.400;16.920;2023-05-23T12:11:00;100320.09;;;17.92;49.68
35577;BME280;21680;52.400;16.920;2023-05-23T12:13:29;100323.70;;;17.81;50.73
35577;BME280;21680;52.400;16.920;2023-05-23T12:15:55;100325.02;;;17.75;51.38
35577;BME280;21680;52.400;16.920;2023-05-23T12:18:27;100328.50;;;17.72;51.91
35577;BME280;21680;52.400;16.920;2023-05-23T12:20:52;100327.34;;;17.71;52.33
35577;BME280;21680;52.400;16.920;2023-05-23T12:23:21;100327.27;;;17.74;52.72
35577;BME280;21680;52.400;16.920;2023-05-23T12:25:54;100323.94;;;17.78;52.95
35577;BME280;21680;52.400;16.920;2023-05-23T12:28:34;100322.19;;;17.79;53.13
35577;BME280;21680;52.400;16.920;2023-05-23T12:31:15;100321.84;;;17.81;53.71
35577;BME280;21680;52.400;16.920;2023-05-23T12:33:41;100321.90;;;17.85;53.96
35577;BME280;21680;52.400;16.920;2023-05-23T12:36:14;100323.63;;;17.91;54.39
35577;BME280;21680;52.400;16.920;2023-05-23T12:38:41;100328.80;;;17.94;54.91
35577;BME280;21680;52.400;16.920;2023-05-23T12:41:10;100333.78;;;17.95;55.30
35577;BME280;21680;52.400;16.920;2023-05-23T12:43:39;100337.52;;;17.91;55.79
35577;BME280;21680;52.400;16.920;2023-05-23T12:46:06;100339.69;;;17.89;56.23
35577;BME280;21680;52.400;16.920;2023-05-23T12:48:32;100338.41;;;17.84;56.69
35577;BME280;21680;52.400;16.920;2023-05-23T12:50:57;100339.27;;;17.68;57.22
35577;BME280;21680;52.400;16.920;2023-05-23T12:53:23;100340.85;;;17.50;58.10